sensor_id;sensor_type;location;lat;lon;timestamp;pressure;altitude;pressure_sealevel;temperature;humidity
41513;BME280;27244;59.940;30.280;2023-02-14T00:00:18;101216.31;;;23.61;29.71
41513;BME280;27244;59.940;30.280;2023-02-14T00:02:48;101235.16;;;23.64;29.44
41513;BME280;27244;59.940;30.280;2023-02-14T00:05:15;101237.63;;;23.62;29.32
41513;BME280;27244;59.940;30.280;2023-02-14T00:07:42;101238.47;;;23.59;29.10
41513;BME280;27244;59.940;30.280;2023-02-14T00:10:11;101246.06;;;23.62;28.66
41513;BME280;27244;59.940;30.280;2023-02-14T00:12:38;101247.72;;;23.59;28.73
41513;BME280;27244;59.940;30.280;2023-02-14T00:15:05;101259.78;;;23.60;28.36
41513;BME280;27244;59.940;30.280;2023-02-14T00:17:54;101258.97;;;23.59;28.16
41513;BME280;27244;59.940;30.280;2023-02-14T00:20:22;101260.28;;;23.55;27.87
41513;BME280;27244;59.940;30.280;2023-02-14T00:22:49;101266.28;;;23.57;27.94
41513;BME280;27244;59.940;30.280;2023-02-14T00:25:18;101279.13;;;23.58;27.45
41513;BME280;27244;59.940;30.280;2023-02-14T00:27:45;101281.56;;;23.56;27.37
41513;BME280;27244;59.940;30.280;2023-02-14T00:30:12;101286.41;;;23.55;27.35
41513;BME280;27244;59.940;30.280;2023-02-14T00:32:40;101289.22;;;23.55;27.19
41513;BME280;27244;59.940;30.280;2023-02-14T00:35:08;101308.94;;;23.55;27.11
41513;BME280;27244;59.940;30.280;2023-02-14T00:37:39;101308.59;;;23.53;27.10
41513;BME280;27244;59.940;30.280;2023-02-14T00:40:07;101322.66;;;23.53;27.22
41513;BME280;27244;59.940;30.280;2023-02-14T00:42:36;101306.56;;;23.53;26.84
41513;BME280;27244;59.940;30.280;2023-02-14T00:45:03;101317.88;;;23.50;26.85
41513;BME280;27244;59.940;30.280;2023-02-14T00:47:30;101329.50;;;23.52;26.65
41513;BME280;27244;59.940;30.280;2023-02-14T00:49:57;101319.50;;;23.51;26.54
41513;BME280;27244;59.940;30.280;2023-02-14T00:52:27;101337.59;;;23.50;26.42
41513;BME280;27244;59.940;30.280;2023-02-14T00:54:56;101333.19;;;23.49;26.35
41513;BME280;27244;59.940;30.280;2023-02-14T00:57:24;101336.50;;;23.44;26.27
41513;BME280;27244;59.940;30.280;2023-02-14T00:59:52;101345.25;;;23.49;26.14
41513;BME280;27244;59.940;30.280;2023-02-14T01:02:19;101335.66;;;23.47;26.09
41513;BME280;27244;59.940;30.280;2023-02-14T01:04:46;101353.34;;;23.47;26.00
41513;BME280;27244;59.940;30.280;2023-02-14T01:07:13;101355.34;;;23.47;25.96
41513;BME280;27244;59.940;30.280;2023-02-14T01:09:41;101360.59;;;23.45;26.00
41513;BME280;27244;59.940;30.280;2023-02-14T01:12:07;101365.44;;;23.44;25.86
41513;BME280;27244;59.940;30.280;2023-02-14T01:14:34;101363.41;;;23.45;25.69
41513;BME280;27244;59.940;30.280;2023-02-14T01:17:04;101367.50;;;23.44;25.68
41513;BME280;27244;59.940;30.280;2023-02-14T01:19:31;101384.00;;;23.42;25.68
41513;BME280;27244;59.940;30.280;2023-02-14T01:21:59;101400.47;;;23.43;25.54
41513;BME280;27244;59.940;30.280;2023-02-14T01:24:26;101396.09;;;23.39;25.68
41513;BME280;27244;59.940;30.280;2023-02-14T01:26:52;101397.69;;;23.40;25.64
41513;BME280;27244;59.940;30.280;2023-02-14T01:29:19;101405.75;;;23.38;25.51
41513;BME280;27244;59.940;30.280;2023-02-14T01:31:46;101407.34;;;23.39;25.51
41513;BME280;27244;59.940;30.280;2023-02-14T01:34:15;101411.38;;;23.38;25.46
41513;BME280;27244;59.940;30.280;2023-02-14T01:36:43;101416.59;;;23.39;25.37
41513;BME280;27244;59.940;30.280;2023-02-14T01:39:12;101411.75;;;23.40;25.35
41513;BME280;27244;59.940;30.280;2023-02-14T01:41:42;101428.25;;;23.41;25.51
41513;BME280;27244;59.940;30.280;2023-02-14T01:47:09;101426.63;;;23.40;24.89
41513;BME280;27244;59.940;30.280;2023-02-14T01:49:41;101433.03;;;23.41;25.40
41513;BME280;27244;59.940;30.280;2023-02-14T01:52:12;101446.75;;;23.39;25.42
41513;BME280;27244;59.940;30.280;2023-02-14T01:54:45;101442.78;;;23.36;25.01
41513;BME280;27244;59.940;30.280;2023-02-14T01:57:16;101459.25;;;23.38;25.14
41513;BME280;27244;59.940;30.280;2023-02-14T01:59:47;101453.25;;;23.36;25.04
41513;BME280;27244;59.940;30.280;2023-02-14T02:02:17;101466.53;;;23.35;24.98
41513;BME280;27244;59.940;30.280;2023-02-14T02:04:52;101473.31;;;23.38;25.01
41513;BME280;27244;59.940;30.280;2023-02-14T02:07:25;101480.59;;;23.35;24.91
41513;BME280;27244;59.940;30.280;2023-02-14T02:09:59;101477.84;;;23.32;24.79
41513;BME280;27244;59.940;30.280;2023-02-14T02:12:27;101478.19;;;23.34;24.80
41513;BME280;27244;59.940;30.280;2023-02-14T02:14:54;101467.53;;;23.22;24.86
41513;BME280;27244;59.940;30.280;2023-02-14T02:17:27;101489.03;;;23.35;24.88
41513;BME280;27244;59.940;30.280;2023-02-14T02:23:35;101512.72;;;23.41;24.96
41513;BME280;27244;59.940;30.280;2023-02-14T02:26:35;101507.50;;;23.40;24.83
41513;BME280;27244;59.940;30.280;2023-02-14T02:32:26;101520.81;;;23.36;24.95
41513;BME280;27244;59.940;30.280;2023-02-14T02:35:26;101519.56;;;23.37;25.07
41513;BME280;27244;59.940;30.280;2023-02-14T02:38:03;101518.19;;;23.22;25.87
41513;BME280;27244;59.940;30.280;2023-02-14T02:40:44;101524.25;;;23.20;26.24
41513;BME280;27244;59.940;30.280;2023-02-14T02:43:20;101527.94;;;23.14;26.68
41513;BME280;27244;59.940;30.280;2023-02-14T02:45:59;101528.34;;;23.12;26.93
41513;BME280;27244;59.940;30.280;2023-02-14T02:48:50;101515.31;;;22.95;27.17
41513;BME280;27244;59.940;30.280;2023-02-14T02:51:29;101542.13;;;23.07;27.54
41513;BME280;27244;59.940;30.280;2023-02-14T02:54:19;101545.38;;;23.01;27.77
41513;BME280;27244;59.940;30.280;2023-02-14T02:56:53;101550.25;;;22.97;28.08
41513;BME280;27244;59.940;30.280;2023-02-14T02:59:24;101555.50;;;22.95;28.41
41513;BME280;27244;59.940;30.280;2023-02-14T03:02:00;101557.91;;;22.97;28.51
41513;BME280;27244;59.940;30.280;2023-02-14T03:04:32;101572.81;;;22.94;28.78
41513;BME280;27244;59.940;30.280;2023-02-14T03:07:19;101568.41;;;22.93;28.90
41513;BME280;27244;59.940;30.280;2023-02-14T03:10:07;101578.88;;;22.92;28.97
41513;BME280;27244;59.940;30.280;2023-02-14T03:13:16;101575.97;;;22.99;29.04
41513;BME280;27244;59.940;30.280;2023-02-14T03:15:53;101581.69;;;22.92;29.30
41513;BME280;27244;59.940;30.280;2023-02-14T03:18:41;101591.69;;;22.93;29.17
41513;BME280;27244;59.940;30.280;2023-02-14T03:21:17;101586.91;;;22.90;29.51
41513;BME280;27244;59.940;30.280;2023-02-14T03:23:51;101587.38;;;22.85;29.68
41513;BME280;27244;59.940;30.280;2023-02-14T03:26:26;101586.63;;;22.81;29.74
41513;BME280;27244;59.940;30.280;2023-02-14T03:28:58;101594.19;;;22.88;29.79
41513;BME280;27244;59.940;30.280;2023-02-14T03:31:32;101592.22;;;22.85;29.94
41513;BME280;27244;59.940;30.280;2023-02-14T03:34:08;101600.28;;;22.79;29.99
41513;BME280;27244;59.940;30.280;2023-02-14T03:36:39;101610.72;;;22.82;30.07
41513;BME280;27244;59.940;30.280;2023-02-14T03:39:14;101620.72;;;22.87;30.28
41513;BME280;27244;59.940;30.280;2023-02-14T03:41:48;101624.75;;;22.86;30.29
41513;BME280;27244;59.940;30.280;2023-02-14T03:44:19;101633.59;;;22.84;30.51
41513;BME280;27244;59.940;30.280;2023-02-14T03:46:50;101634.00;;;22.83;30.72
41513;BME280;27244;59.940;30.280;2023-02-14T03:49:23;101634.50;;;22.74;30.68
41513;BME280;27244;59.940;30.280;2023-02-14T03:51:53;101659.75;;;22.81;30.63
41513;BME280;27244;59.940;30.280;2023-02-14T03:54:24;101665.38;;;22.81;30.80
41513;BME280;27244;59.940;30.280;2023-02-14T03:56:55;101673.25;;;23.00;30.01
41513;BME280;27244;59.940;30.280;2023-02-14T03:59:24;101677.44;;;22.82;31.02
41513;BME280;27244;59.940;30.280;2023-02-14T04:01:54;101684.28;;;22.81;30.93
41513;BME280;27244;59.940;30.280;2023-02-14T04:04:26;101691.91;;;22.80;31.03
41513;BME280;27244;59.940;30.280;2023-02-14T04:06:54;101699.97;;;22.78;31.19
41513;BME280;27244;59.940;30.280;2023-02-14T04:09:22;101698.75;;;22.79;31.42
41513;BME280;27244;59.940;30.280;2023-02-14T04:11:49;101699.97;;;22.78;31.29
41513;BME280;27244;59.940;30.280;2023-02-14T04:14:17;101688.81;;;22.64;31.38
41513;BME280;27244;59.940;30.280;2023-02-14T04:16:44;101719.25;;;22.76;31.34
41513;BME280;27244;59.940;30.280;2023-02-14T04:19:28;101712.84;;;22.76;31.40
41513;BME280;27244;59.940;30.280;2023-02-14T04:21:55;101665.72;;;22.39;31.41
41513;BME280;27244;59.940;30.280;2023-02-14T04:24:26;101724.06;;;22.79;31.49
41513;BME280;27244;59.940;30.280;2023-02-14T04:26:53;101735.16;;;23.00;31.14
41513;BME280;27244;59.940;30.280;2023-02-14T04:29:37;101740.97;;;23.20;30.95
41513;BME280;27244;59.940;30.280;2023-02-14T04:32:06;101728.41;;;23.32;30.80
41513;BME280;27244;59.940;30.280;2023-02-14T04:34:33;101736.72;;;23.46;30.66
41513;BME280;27244;59.940;30.280;2023-02-14T04:37:00;101753.53;;;23.53;30.47
41513;BME280;27244;59.940;30.280;2023-02-14T04:39:29;101760.25;;;23.63;30.38
41513;BME280;27244;59.940;30.280;2023-02-14T04:41:56;101759.00;;;23.67;30.22
41513;BME280;27244;59.940;30.280;2023-02-14T04:44:24;101775.03;;;23.74;29.92
41513;BME280;27244;59.940;30.280;2023-02-14T04:46:51;101778.25;;;23.76;30.09
41513;BME280;27244;59.940;30.280;2023-02-14T04:49:18;101775.81;;;23.74;30.02
41513;BME280;27244;59.940;30.280;2023-02-14T04:51:45;101799.03;;;23.85;29.94
41513;BME280;27244;59.940;30.280;2023-02-14T04:54:12;101794.63;;;23.84;30.01
41513;BME280;27244;59.940;30.280;2023-02-14T04:56:40;101800.63;;;23.90;29.90
41513;BME280;27244;59.940;30.280;2023-02-14T04:59:07;101806.25;;;23.90;29.88
41513;BME280;27244;59.940;30.280;2023-02-14T05:01:34;101812.25;;;23.92;29.98
41513;BME280;27244;59.940;30.280;2023-02-14T05:04:02;101807.81;;;23.94;29.84
41513;BME280;27244;59.940;30.280;2023-02-14T05:06:29;101803.78;;;23.92;29.92
41513;BME280;27244;59.940;30.280;2023-02-14T05:08:57;101813.00;;;23.96;30.01
41513;BME280;27244;59.940;30.280;2023-02-14T05:11:26;101823.44;;;23.99;30.04
41513;BME280;27244;59.940;30.280;2023-02-14T05:13:54;101816.19;;;24.01;30.14
41513;BME280;27244;59.940;30.280;2023-02-14T05:16:21;101809.31;;;24.02;30.09
41513;BME280;27244;59.940;30.280;2023-02-14T05:18:48;101810.09;;;24.03;30.09
41513;BME280;27244;59.940;30.280;2023-02-14T05:21:16;101811.31;;;24.02;30.01
41513;BME280;27244;59.940;30.280;2023-02-14T05:23:43;101810.91;;;24.03;29.96
41513;BME280;27244;59.940;30.280;2023-02-14T05:26:10;101806.47;;;24.02;30.13
41513;BME280;27244;59.940;30.280;2023-02-14T05:28:37;101821.72;;;24.09;30.18
41513;BME280;27244;59.940;30.280;2023-02-14T05:31:07;101832.56;;;24.10;29.91
41513;BME280;27244;59.940;30.280;2023-02-14T05:33:33;101840.63;;;24.12;30.09
41513;BME280;27244;59.940;30.280;2023-02-14T05:36:01;101838.66;;;24.09;30.13
41513;BME280;27244;59.940;30.280;2023-02-14T05:38:28;101850.28;;;24.14;30.07
41513;BME280;27244;59.940;30.280;2023-02-14T05:40:55;101850.69;;;24.13;30.27
41513;BME280;27244;59.940;30.280;2023-02-14T05:43:27;101856.66;;;24.18;30.20
41513;BME280;27244;59.940;30.280;2023-02-14T05:45:54;101860.75;;;24.14;30.16
41513;BME280;27244;59.940;30.280;2023-02-14T05:48:23;101885.22;;;24.20;30.15
41513;BME280;27244;59.940;30.280;2023-02-14T05:50:50;101887.69;;;24.18;29.95
41513;BME280;27244;59.940;30.280;2023-02-14T05:53:17;101895.72;;;24.20;30.08
41513;BME280;27244;59.940;30.280;2023-02-14T05:55:44;101891.34;;;24.15;30.23
41513;BME280;27244;59.940;30.280;2023-02-14T05:58:11;101909.88;;;24.16;30.06
41513;BME280;27244;59.940;30.280;2023-02-14T06:00:38;101915.88;;;24.18;30.27
41513;BME280;27244;59.940;30.280;2023-02-14T06:03:05;101923.53;;;24.18;30.23
41513;BME280;27244;59.940;30.280;2023-02-14T06:05:33;101925.94;;;24.19;30.18
41513;BME280;27244;59.940;30.280;2023-02-14T06:08:00;101930.81;;;24.15;30.30
41513;BME280;27244;59.940;30.280;2023-02-14T06:10:27;101930.34;;;24.20;30.31
41513;BME280;27244;59.940;30.280;2023-02-14T06:12:54;101939.25;;;24.19;30.38
41513;BME280;27244;59.940;30.280;2023-02-14T06:15:23;101945.25;;;24.21;30.31
41513;BME280;27244;59.940;30.280;2023-02-14T06:17:51;101950.06;;;24.20;30.30
41513;BME280;27244;59.940;30.280;2023-02-14T06:20:19;101954.50;;;24.21;30.04
41513;BME280;27244;59.940;30.280;2023-02-14T06:22:47;101945.28;;;24.17;30.34
41513;BME280;27244;59.940;30.280;2023-02-14T06:25:15;101960.53;;;24.23;30.20
41513;BME280;27244;59.940;30.280;2023-02-14T06:27:42;101956.13;;;24.22;30.33
41513;BME280;27244;59.940;30.280;2023-02-14T06:30:10;101963.00;;;24.18;30.46
41513;BME280;27244;59.940;30.280;2023-02-14T06:32:38;101969.00;;;24.23;30.45
41513;BME280;27244;59.940;30.280;2023-02-14T06:35:06;101972.59;;;24.24;30.44
41513;BME280;27244;59.940;30.280;2023-02-14T06:37:33;101975.41;;;24.24;30.38
41513;BME280;27244;59.940;30.280;2023-02-14T06:40:01;101977.03;;;24.25;30.61
41513;BME280;27244;59.940;30.280;2023-02-14T06:42:28;101983.47;;;24.25;30.59
41513;BME280;27244;59.940;30.280;2023-02-14T06:44:55;102001.56;;;24.28;30.42
41513;BME280;27244;59.940;30.280;2023-02-14T06:47:22;102004.78;;;24.30;30.34
41513;BME280;27244;59.940;30.280;2023-02-14T06:49:49;102009.22;;;24.31;30.33
41513;BME280;27244;59.940;30.280;2023-02-14T06:52:16;102009.22;;;24.31;30.58
41513;BME280;27244;59.940;30.280;2023-02-14T06:54:43;102019.72;;;24.27;30.57
41513;BME280;27244;59.940;30.280;2023-02-14T06:57:12;102026.56;;;24.26;30.52
41513;BME280;27244;59.940;30.280;2023-02-14T06:59:39;102031.41;;;24.25;30.67
41513;BME280;27244;59.940;30.280;2023-02-14T07:02:08;102033.41;;;24.25;30.56
41513;BME280;27244;59.940;30.280;2023-02-14T07:04:35;102040.66;;;24.26;30.67
41513;BME280;27244;59.940;30.280;2023-02-14T07:07:02;102045.50;;;24.25;30.77
41513;BME280;27244;59.940;30.280;2023-02-14T07:09:29;102049.53;;;24.24;30.74
41513;BME280;27244;59.940;30.280;2023-02-14T07:11:56;102048.31;;;24.25;30.86
41513;BME280;27244;59.940;30.280;2023-02-14T07:14:24;102054.78;;;24.26;30.80
41513;BME280;27244;59.940;30.280;2023-02-14T07:16:51;102060.41;;;24.26;30.73
41513;BME280;27244;59.940;30.280;2023-02-14T07:19:18;102043.59;;;24.12;30.75
41513;BME280;27244;59.940;30.280;2023-02-14T07:21:45;102064.84;;;24.27;30.87
41513;BME280;27244;59.940;30.280;2023-02-14T07:24:12;102056.38;;;24.27;30.93
41513;BME280;27244;59.940;30.280;2023-02-14T07:26:39;102057.16;;;24.27;30.64
41513;BME280;27244;59.940;30.280;2023-02-14T07:29:06;102063.63;;;24.24;30.86
41513;BME280;27244;59.940;30.280;2023-02-14T07:31:35;102084.09;;;24.32;30.86
41513;BME280;27244;59.940;30.280;2023-02-14T07:34:02;102079.31;;;24.29;30.82
41513;BME280;27244;59.940;30.280;2023-02-14T07:36:35;102096.63;;;24.31;30.97
41513;BME280;27244;59.940;30.280;2023-02-14T07:39:12;102102.28;;;24.31;30.82
41513;BME280;27244;59.940;30.280;2023-02-14T07:41:39;102107.47;;;24.32;30.92
41513;BME280;27244;59.940;30.280;2023-02-14T07:44:09;102116.75;;;24.33;31.44
41513;BME280;27244;59.940;30.280;2023-02-14T07:46:37;102122.81;;;24.28;32.43
41513;BME280;27244;59.940;30.280;2023-02-14T07:49:04;102134.09;;;24.28;32.09
41513;BME280;27244;59.940;30.280;2023-02-14T07:51:31;102151.06;;;24.21;31.65
41513;BME280;27244;59.940;30.280;2023-02-14T07:53:58;102151.88;;;24.21;31.71
41513;BME280;27244;59.940;30.280;2023-02-14T07:56:25;102154.28;;;24.23;31.84
41513;BME280;27244;59.940;30.280;2023-02-14T07:58:52;102155.94;;;24.17;31.81
41513;BME280;27244;59.940;30.280;2023-02-14T08:01:19;102164.41;;;24.17;31.78
41513;BME280;27244;59.940;30.280;2023-02-14T08:03:48;102166.84;;;24.15;31.58
41513;BME280;27244;59.940;30.280;2023-02-14T08:06:16;102185.75;;;24.14;31.58
41513;BME280;27244;59.940;30.280;2023-02-14T08:08:44;102182.13;;;24.10;31.69
41513;BME280;27244;59.940;30.280;2023-02-14T08:11:11;102178.09;;;24.11;31.67
41513;BME280;27244;59.940;30.280;2023-02-14T08:13:59;102181.31;;;24.10;31.88
41513;BME280;27244;59.940;30.280;2023-02-14T08:16:26;102180.56;;;24.09;31.79
41513;BME280;27244;59.940;30.280;2023-02-14T08:18:55;102193.00;;;24.12;31.70
41513;BME280;27244;59.940;30.280;2023-02-14T08:21:22;102186.97;;;24.10;31.85
41513;BME280;27244;59.940;30.280;2023-02-14T08:23:49;102182.59;;;24.05;31.90
41513;BME280;27244;59.940;30.280;2023-02-14T08:26:16;102186.59;;;24.08;31.80
41513;BME280;27244;59.940;30.280;2023-02-14T08:28:43;102198.25;;;24.10;31.85
41513;BME280;27244;59.940;30.280;2023-02-14T08:31:11;102207.13;;;24.08;31.88
41513;BME280;27244;59.940;30.280;2023-02-14T08:33:38;102216.00;;;24.03;32.04
41513;BME280;27244;59.940;30.280;2023-02-14T08:36:06;102217.19;;;24.06;31.97
41513;BME280;27244;59.940;30.280;2023-02-14T08:38:33;102231.28;;;24.09;31.98
41513;BME280;27244;59.940;30.280;2023-02-14T08:41:00;102224.44;;;24.07;32.17
41513;BME280;27244;59.940;30.280;2023-02-14T08:43:27;102230.50;;;24.09;32.15
41513;BME280;27244;59.940;30.280;2023-02-14T08:45:54;102249.81;;;24.07;32.25
41513;BME280;27244;59.940;30.280;2023-02-14T08:48:21;102241.78;;;24.05;32.23
41513;BME280;27244;59.940;30.280;2023-02-14T08:50:51;102237.34;;;24.04;31.96
41513;BME280;27244;59.940;30.280;2023-02-14T08:53:20;102254.63;;;24.10;32.04
41513;BME280;27244;59.940;30.280;2023-02-14T08:55:48;102245.78;;;24.08;32.21
41513;BME280;27244;59.940;30.280;2023-02-14T08:58:15;102242.16;;;24.07;32.06
41513;BME280;27244;59.940;30.280;2023-02-14T09:00:42;102254.25;;;24.04;31.87
41513;BME280;27244;59.940;30.280;2023-02-14T09:03:09;102247.00;;;24.03;32.13
41513;BME280;27244;59.940;30.280;2023-02-14T09:05:36;102255.06;;;24.05;32.11
41513;BME280;27244;59.940;30.280;2023-02-14T09:08:03;102248.22;;;24.02;32.30
41513;BME280;27244;59.940;30.280;2023-02-14T09:10:31;102248.63;;;24.04;32.18
41513;BME280;27244;59.940;30.280;2023-02-14T09:12:58;102247.03;;;23.99;32.06
41513;BME280;27244;59.940;30.280;2023-02-14T09:15:25;102250.25;;;24.01;32.25
41513;BME280;27244;59.940;30.280;2023-02-14T09:17:52;102257.47;;;24.02;32.25
41513;BME280;27244;59.940;30.280;2023-02-14T09:20:19;102271.56;;;24.02;32.19
41513;BME280;27244;59.940;30.280;2023-02-14T09:22:46;102287.31;;;24.00;32.13
41513;BME280;27244;59.940;30.280;2023-02-14T09:25:14;102281.66;;;24.00;32.26
41513;BME280;27244;59.940;30.280;2023-02-14T09:27:42;102280.06;;;23.99;32.25
41513;BME280;27244;59.940;30.280;2023-02-14T09:30:11;102281.31;;;23.94;32.22
41513;BME280;27244;59.940;30.280;2023-02-14T09:32:39;102289.75;;;23.98;32.12
41513;BME280;27244;59.940;30.280;2023-02-14T09:35:07;102292.56;;;23.98;32.13
41513;BME280;27244;59.940;30.280;2023-02-14T09:37:51;102309.06;;;23.96;32.04
41513;BME280;27244;59.940;30.280;2023-02-14T09:40:18;102298.59;;;23.96;32.21
41513;BME280;27244;59.940;30.280;2023-02-14T09:42:55;102302.22;;;24.00;32.06
41513;BME280;27244;59.940;30.280;2023-02-14T09:45:26;102313.88;;;23.95;32.35
41513;BME280;27244;59.940;30.280;2023-02-14T09:47:56;102315.91;;;23.95;32.29
41513;BME280;27244;59.940;30.280;2023-02-14T09:50:29;102336.88;;;23.94;32.27
41513;BME280;27244;59.940;30.280;2023-02-14T09:53:02;102336.06;;;23.93;32.23
41513;BME280;27244;59.940;30.280;2023-02-14T09:55:38;102339.66;;;23.97;32.29
41513;BME280;27244;59.940;30.280;2023-02-14T09:58:12;102340.88;;;24.00;32.36
41513;BME280;27244;59.940;30.280;2023-02-14T10:00:45;102344.50;;;23.97;32.25
41513;BME280;27244;59.940;30.280;2023-02-14T10:03:33;102342.06;;;24.02;32.08
41513;BME280;27244;59.940;30.280;2023-02-14T10:06:08;102352.94;;;24.00;32.11
41513;BME280;27244;59.940;30.280;2023-02-14T10:08:46;102340.88;;;23.96;32.37
41513;BME280;27244;59.940;30.280;2023-02-14T10:11:20;102346.13;;;23.94;32.35
41513;BME280;27244;59.940;30.280;2023-02-14T10:13:53;102351.34;;;23.96;32.50
41513;BME280;27244;59.940;30.280;2023-02-14T10:16:24;102350.94;;;23.97;32.65
41513;BME280;27244;59.940;30.280;2023-02-14T10:18:55;102359.00;;;23.95;32.51
41513;BME280;27244;59.940;30.280;2023-02-14T10:21:27;102349.72;;;23.98;32.65
41513;BME280;27244;59.940;30.280;2023-02-14T10:24:00;102354.16;;;23.99;32.65
41513;BME280;27244;59.940;30.280;2023-02-14T10:26:34;102346.50;;;23.96;32.76
41513;BME280;27244;59.940;30.280;2023-02-14T10:29:05;102359.78;;;23.99;32.56
41513;BME280;27244;59.940;30.280;2023-02-14T10:31:38;102361.00;;;23.98;32.79
41513;BME280;27244;59.940;30.280;2023-02-14T10:34:12;102372.25;;;23.98;32.65
41513;BME280;27244;59.940;30.280;2023-02-14T10:36:47;102376.31;;;24.01;33.11
41513;BME280;27244;59.940;30.280;2023-02-14T10:39:34;102368.22;;;24.03;32.89
41513;BME280;27244;59.940;30.280;2023-02-14T10:42:14;102383.16;;;24.00;32.95
41513;BME280;27244;59.940;30.280;2023-02-14T10:44:53;102368.66;;;24.01;32.88
41513;BME280;27244;59.940;30.280;2023-02-14T10:47:30;102376.66;;;24.10;32.34
41513;BME280;27244;59.940;30.280;2023-02-14T10:50:08;102375.06;;;24.02;33.12
41513;BME280;27244;59.940;30.280;2023-02-14T10:52:40;102383.16;;;24.00;33.03
41513;BME280;27244;59.940;30.280;2023-02-14T10:55:14;102387.19;;;23.95;33.23
41513;BME280;27244;59.940;30.280;2023-02-14T10:57:46;102379.16;;;23.90;33.20
41513;BME280;27244;59.940;30.280;2023-02-14T11:00:20;102381.53;;;23.95;32.97
41513;BME280;27244;59.940;30.280;2023-02-14T11:02:51;102389.19;;;23.91;33.26
41513;BME280;27244;59.940;30.280;2023-02-14T11:05:25;102375.13;;;23.84;33.11
41513;BME280;27244;59.940;30.280;2023-02-14T11:07:54;102389.63;;;23.90;33.21
41513;BME280;27244;59.940;30.280;2023-02-14T11:10:25;102385.59;;;23.91;33.25
41513;BME280;27244;59.940;30.280;2023-02-14T11:12:54;102390.84;;;23.85;33.20
41513;BME280;27244;59.940;30.280;2023-02-14T11:15:25;102398.47;;;23.92;32.86
41513;BME280;27244;59.940;30.280;2023-02-14T11:18:08;102399.25;;;23.96;33.00
41513;BME280;27244;59.940;30.280;2023-02-14T11:20:39;102404.09;;;23.88;33.13
41513;BME280;27244;59.940;30.280;2023-02-14T11:23:20;102402.50;;;23.94;32.88
41513;BME280;27244;59.940;30.280;2023-02-14T11:25:51;102405.72;;;23.93;33.05
41513;BME280;27244;59.940;30.280;2023-02-14T11:28:20;102405.72;;;23.89;32.91
41513;BME280;27244;59.940;30.280;2023-02-14T11:30:49;102398.88;;;23.90;33.04
41513;BME280;27244;59.940;30.280;2023-02-14T11:33:30;102412.97;;;23.94;32.85
41513;BME280;27244;59.940;30.280;2023-02-14T11:35:59;102413.78;;;23.91;32.93
41513;BME280;27244;59.940;30.280;2023-02-14T11:38:29;102408.16;;;23.87;33.18
41513;BME280;27244;59.940;30.280;2023-02-14T11:40:59;102413.38;;;23.89;32.93
41513;BME280;27244;59.940;30.280;2023-02-14T11:43:31;102414.16;;;23.93;32.86
41513;BME280;27244;59.940;30.280;2023-02-14T11:46:16;102425.84;;;23.95;32.84
41513;BME280;27244;59.940;30.280;2023-02-14T11:48:55;102424.25;;;23.94;32.88
41513;BME280;27244;59.940;30.280;2023-02-14T11:51:34;102426.63;;;23.99;32.83
41513;BME280;27244;59.940;30.280;2023-02-14T11:54:03;102421.00;;;23.92;33.01
41513;BME280;27244;59.940;30.280;2023-02-14T11:56:48;102437.91;;;23.99;32.67
41513;BME280;27244;59.940;30.280;2023-02-14T11:59:27;102435.09;;;23.95;32.65
41513;BME280;27244;59.940;30.280;2023-02-14T12:02:00;102432.69;;;23.94;32.88
41513;BME280;27244;59.940;30.280;2023-02-14T12:04:32;102438.34;;;23.90;32.76
41513;BME280;27244;59.940;30.280;2023-02-14T12:07:16;102439.53;;;23.96;32.79
41513;BME280;27244;59.940;30.280;2023-02-14T12:09:45;102444.78;;;23.91;32.74
41513;BME280;27244;59.940;30.280;2023-02-14T12:12:18;102459.28;;;23.93;32.90
41513;BME280;27244;59.940;30.280;2023-02-14T12:14:45;102450.00;;;23.89;32.83
41513;BME280;27244;59.940;30.280;2023-02-14T12:17:33;102449.59;;;23.97;32.54
41513;BME280;27244;59.940;30.280;2023-02-14T12:20:07;102453.25;;;23.91;32.76
41513;BME280;27244;59.940;30.280;2023-02-14T12:22:42;102448.38;;;23.91;32.87
41513;BME280;27244;59.940;30.280;2023-02-14T12:25:14;102445.19;;;23.93;32.68
41513;BME280;27244;59.940;30.280;2023-02-14T12:27:46;102462.09;;;23.93;32.79
41513;BME280;27244;59.940;30.280;2023-02-14T12:30:18;102459.28;;;23.89;32.68
41513;BME280;27244;59.940;30.280;2023-02-14T12:32:49;102467.72;;;23.93;32.73
41513;BME280;27244;59.940;30.280;2023-02-14T12:35:18;102470.56;;;23.89;32.79
41513;BME280;27244;59.940;30.280;2023-02-14T12:37:56;102465.28;;;23.91;32.59
41513;BME280;27244;59.940;30.280;2023-02-14T12:40:32;102470.94;;;23.91;32.78
41513;BME280;27244;59.940;30.280;2023-02-14T12:43:13;102477.00;;;23.93;32.66
41513;BME280;27244;59.940;30.280;2023-02-14T12:46:11;102482.19;;;23.98;32.46
41513;BME280;27244;59.940;30.280;2023-02-14T12:48:53;102480.19;;;23.92;32.66
41513;BME280;27244;59.940;30.280;2023-02-14T12:51:28;102483.00;;;23.95;32.61
41513;BME280;27244;59.940;30.280;2023-02-14T12:54:13;102491.06;;;24.00;32.52
41513;BME280;27244;59.940;30.280;2023-02-14T12:56:51;102491.91;;;23.90;32.55
41513;BME280;27244;59.940;30.280;2023-02-14T12:59:29;102488.66;;;23.92;32.47
41513;BME280;27244;59.940;30.280;2023-02-14T13:02:33;102499.53;;;24.00;32.44
41513;BME280;27244;59.940;30.280;2023-02-14T13:05:16;102497.53;;;23.94;32.64
41513;BME280;27244;59.940;30.280;2023-02-14T13:07:54;102510.81;;;23.93;32.68
41513;BME280;27244;59.940;30.280;2023-02-14T13:10:43;102510.00;;;23.93;32.52